Flight Track Log - Related Links

Times and Time Zones

All times are in EDT time to prevent confusion due to time zone crossing. See the CES2889 flight status page for this flight to view local times or setup timezone preferences in your user account.

Time Position Orientation Groundspeed Altitude Reporting Facility
EDT Latitude Longitude Course Direction KTS MPH feet Rate Location/Type
Sun 05:18:00 AM 28.0572 114.7002 233° Southwest  Level Estimated
Sun 05:19:00 AM 27.9946 114.6087 232° Southwest  Level Estimated
Sun 05:20:00 AM 27.9320 114.5173 232° Southwest  Level Estimated
Sun 05:21:00 AM 27.8693 114.4260 232° Southwest  Level Estimated
Sun 05:22:00 AM 27.8066 114.3347 232° Southwest  Level Estimated
Sun 05:23:00 AM 27.7438 114.2436 232° Southwest  Level Estimated
Sun 05:24:00 AM 27.6809 114.1526 232° Southwest  Level Estimated
Sun 05:25:00 AM 27.6180 114.0617 232° Southwest  Level Estimated
Sun 05:26:00 AM 27.5550 113.9709 232° Southwest  Level Estimated
Sun 05:27:00 AM 27.4919 113.8802 232° Southwest  Level Estimated
Sun 05:28:00 AM 27.4288 113.7896 232° Southwest  Level Estimated
Sun 05:29:00 AM 27.3657 113.6992 232° Southwest  Level Estimated
Sun 05:30:00 AM 27.3024 113.6088 232° Southwest  Level Estimated
Sun 05:31:00 AM 27.2392 113.5185 232° Southwest  Level Estimated
Sun 05:32:00 AM 27.1866 113.4437 232° Southwest  Level Estimated
Sun 05:33:00 AM 27.1340 113.3689 232° Southwest  Level Estimated
Sun 05:34:00 AM 27.0814 113.2943 232° Southwest  Level Estimated
Sun 05:35:00 AM 27.0288 113.2197 232° Southwest  Level Estimated
Sun 05:36:00 AM 26.9761 113.1451 232° Southwest  Level Estimated
Sun 05:37:00 AM 26.9233 113.0707 232° Southwest  Level Estimated
Sun 05:38:00 AM 26.8706 112.9963 232° Southwest  Level Estimated
Sun 05:39:00 AM 26.8178 112.9220 231° Southwest  Level Estimated
Sun 05:40:00 AM 26.7649 112.8477 231° Southwest  Level Estimated
Sun 05:41:00 AM 26.7120 112.7735 231° Southwest  Level Estimated
Sun 05:42:00 AM 26.6591 112.6994 231° Southwest  Level Estimated
Sun 05:43:00 AM 26.6061 112.6254 231° Southwest  Level Estimated
Sun 05:44:00 AM 26.5531 112.5514 231° Southwest  Level Estimated
Sun 05:45:00 AM 26.5001 112.4775 231° Southwest  Level Estimated
Sun 05:46:00 AM 26.4470 112.4036 231° Southwest  Level Estimated
Sun 05:47:00 AM 26.3939 112.3299 231° Southwest  Level Estimated
Sun 05:48:00 AM 26.3407 112.2561 231° Southwest  Level Estimated
Sun 05:49:00 AM 26.2875 112.1825 231° Southwest  Level Estimated
Sun 05:50:00 AM 26.2343 112.1089 231° Southwest  Level Estimated
Sun 05:51:00 AM 26.1810 112.0354 231° Southwest  Level Estimated
Sun 05:52:00 AM 26.1277 111.9620 231° Southwest  Level Estimated
Sun 05:53:00 AM 26.0744 111.8886 231° Southwest  Level Estimated
Sun 05:54:00 AM 26.0210 111.8153 231° Southwest  Level Estimated
Sun 05:55:00 AM 25.9676 111.7421 231° Southwest  Level Estimated
Sun 05:56:00 AM 25.9141 111.6689 231° Southwest  Level Estimated
Sun 05:57:00 AM 25.8606 111.5958 231° Southwest  Level Estimated
Sun 05:58:00 AM 25.8071 111.5228 231° Southwest  Level Estimated
Sun 05:59:00 AM 25.7535 111.4498 231° Southwest  Level Estimated
Sun 06:00:00 AM 25.6999 111.3769 231° Southwest  Level Estimated
Sun 06:01:00 AM 25.6463 111.3041 231° Southwest  Level Estimated
Sun 06:02:00 AM 25.5926 111.2313 231° Southwest  Level Estimated
Sun 06:03:00 AM 25.5389 111.1586 231° Southwest  Level Estimated
Sun 06:04:00 AM 25.4852 111.0859 231° Southwest  Level Estimated
Sun 06:05:00 AM 25.4314 111.0134 231° Southwest  Level Estimated
Sun 06:06:00 AM 25.3776 110.9408 231° Southwest  Level Estimated
Sun 06:07:00 AM 25.3237 110.8684 231° Southwest  Level Estimated
Sun 06:08:00 AM 25.2698 110.7960 231° Southwest  Level Estimated
Sun 06:09:00 AM 25.2159 110.7237 231° Southwest  Level Estimated
Sun 06:10:00 AM 25.1619 110.6514 230° Southwest  Level Estimated
Sun 06:11:00 AM 25.1080 110.5792 230° Southwest  Level Estimated
Sun 06:12:00 AM 25.0539 110.5071 230° Southwest  Level Estimated
Sun 06:13:00 AM 24.9999 110.4350 230° Southwest  Level Estimated
Sun 06:14:00 AM 24.9458 110.3630 230° Southwest  Level Estimated
Sun 06:15:00 AM 24.8916 110.2911 230° Southwest  Level Estimated
Sun 06:16:00 AM 24.8375 110.2192 230° Southwest  Level Estimated
Sun 06:17:00 AM 24.7833 110.1474 230° Southwest  Level Estimated
Sun 06:18:00 AM 24.7290 110.0757 230° Southwest  Level Estimated
Sun 06:19:00 AM 24.6748 110.0040 230° Southwest  Level Estimated
Sun 06:20:00 AM 24.6205 109.9324 230° Southwest  Level Estimated
Sun 06:21:00 AM 24.5661 109.8608 230° Southwest  Level Estimated
Sun 06:22:00 AM 24.5118 109.7893 230° Southwest  Level Estimated
Sun 06:23:00 AM 24.4574 109.7178 230° Southwest  Level Estimated
Sun 06:24:00 AM 24.4029 109.6465 230° Southwest  Level Estimated
Sun 06:25:00 AM 24.3484 109.5752 230° Southwest  Level Estimated
Sun 06:26:00 AM 24.2939 109.5039 230° Southwest  Level Estimated
Sun 06:27:00 AM 24.2394 109.4327 230° Southwest  Level Estimated
Sun 06:28:00 AM 24.2075 109.3911 230° Southwest  Level Estimated
Sun 06:29:00 AM 24.2075 109.3911 90° East  Level Estimated
Sun 06:30:00 AM 24.2075 109.3911 90° East  Level Estimated
Sun 06:31:00 AM 24.2075 109.3911 90° East  Level Estimated
Sun 06:32:00 AM 24.2075 109.3911 90° East  Level Estimated
Sun 06:33:00 AM 24.2075 109.3911 90° East  Level Estimated
Sun 06:34:00 AM 24.2075 109.3911 90° East  Level Estimated
Sun 06:35:00 AM 24.2075 109.3911 90° East  Level Estimated
Sun 06:36:00 AM 24.2075 109.3911 90° East  Level Estimated
Sun 06:37:00 AM 24.2075 109.3911 90° East  Level Estimated
Sun 06:38:00 AM 24.2075 109.3911 90° East  Level Estimated
Sun 06:39:00 AM 24.2075 109.3911 90° East  Level Estimated
Sun 06:40:00 AM 24.2075 109.3911 90° East  Level Estimated
Sun 06:41:00 AM 24.2075 109.3911 90° East  Level Estimated
Sun 06:42:00 AM 24.2075 109.3911 90° East  Level Estimated
Sun 06:43:00 AM 24.2075 109.3911 90° East  Level Estimated
Sun 06:44:00 AM 24.2075 109.3911 90° East  Level Estimated
Sun 06:45:00 AM 24.2075 109.3911 90° East  Level Estimated
Sun 06:46:00 AM 24.2075 109.3911 90° East  Level Estimated
Sun 06:47:00 AM 24.2075 109.3911 90° East  Level Estimated
Sun 06:48:00 AM 24.2075 109.3911 90° East  Level Estimated
Sun 06:49:00 AM 24.2075 109.3911 90° East  Level Estimated

Login

Don't have an account? Register now (free) for customized features, flight alerts, and more!